Weather at Gressholmen Seaplane Base [CLOSED]

Public forecast

Using degrees Celsius for public forecast. Weather courtesy of forecast.io.

Closest aviation weather report (METAR) to Gressholmen Seaplane Base

Report is more than 6 hours old.

Closest report is Oslo Airport, Gardermoen, 21.9 nm (40.5 km) NNE.

2022/11/14 15:20 (retrieved 2 years ago)

ENGM 141520Z 03005KT 360V080 9999 5000SE BKN005 04/04 Q1022 TEMPO 4000 BR BKN002

Closest aviation forecast (TAF) to Gressholmen Seaplane Base

Forecast is more than 12 hours old.

Closest forecast is Oslo Airport, Gardermoen, 21.9 nm (40.5 km) NNE.

2023/02/22 18:36 (retrieved 1 year ago)

TAF ENGM 221700Z 2218/2318 17010KT 9000 -SN SCT012 BKN025 BECMG 2218/2220 4000 -SN SCT004 BKN012 TEMPO 2220/2305 1200 SN BR VV004 BECMG 2307/2309 01012KT 9999 NSW SCT030